Time;durP1;ratioP1;P1;durP2;ratioP2;P2;SDS_P1;SDS_P2;PMS_P1;PMS_P2;Temp;Humidity;BMP_temperature;BMP_pressure;BME280_temperature;BME280_humidity;BME280_pressure;Samples;Min_cycle;Max_cycle;Signal;HPM_P1;HPM_P2
2022/09/01 00:00:00;;;;;;;1999.90;999.90;;;;;;;;;;5078397;28;20416;-70
2022/09/01 00:02:33;;;;;;;1999.90;999.90;;;;;;;;;;5066760;28;20398;-71
2022/09/01 00:05:04;;;;;;;1999.90;999.90;;;;;;;;;;5068408;28;20439;-70
2022/09/01 00:07:34;;;;;;;1999.90;999.90;;;;;;;;;;5066377;28;20418;-71
2022/09/01 00:10:03;;;;;;;1999.90;999.90;;;;;;;;;;5078758;28;20395;-71
2022/09/01 00:12:30;;;;;;;1999.90;999.90;;;;;;;;;;5071922;28;20500;-71
2022/09/01 00:14:58;;;;;;;1999.90;999.90;;;;;;;;;;5067077;28;20414;-71
2022/09/01 00:17:26;;;;;;;1999.90;999.90;;;;;;;;;;5066159;28;20419;-70
2022/09/01 00:19:55;;;;;;;1999.90;999.90;;;;;;;;;;5068580;28;20893;-70
2022/09/01 00:22:23;;;;;;;1999.90;999.90;;;;;;;;;;5066669;28;20418;-70
2022/09/01 00:24:51;;;;;;;1999.90;999.90;;;;;;;;;;5063913;28;20415;-69
2022/09/01 00:27:19;;;;;;;1999.90;999.90;;;;;;;;;;5066218;28;20404;-70
2022/09/01 00:29:54;;;;;;;1999.90;999.90;;;;;;;;;;5064725;28;20425;-71
2022/09/01 00:32:22;;;;;;;1999.90;999.90;;;;;;;;;;5063491;28;20429;-70
2022/09/01 00:34:50;;;;;;;1999.90;999.90;;;;;;;;;;5063753;28;20486;-70
2022/09/01 00:37:19;;;;;;;1999.90;999.90;;;;;;;;;;5077334;28;20438;-70
2022/09/01 00:39:46;;;;;;;1999.90;999.90;;;;;;;;;;5079553;28;20497;-70
2022/09/01 00:42:14;;;;;;;1999.90;999.90;;;;;;;;;;5068837;28;20937;-70
2022/09/01 00:44:42;;;;;;;1999.90;999.90;;;;;;;;;;5068016;28;20426;-70
2022/09/01 00:47:12;;;;;;;1999.90;999.90;;;;;;;;;;5066307;28;20415;-70
2022/09/01 00:49:41;;;;;;;1999.90;999.90;;;;;;;;;;5053575;28;20400;-71
2022/09/01 00:52:10;;;;;;;1999.90;999.90;;;;;;;;;;5071019;28;20389;-71
2022/09/01 00:54:43;;;;;;;1999.90;999.90;;;;;;;;;;5049859;28;20385;-71
2022/09/01 00:57:12;;;;;;;1999.90;999.90;;;;;;;;;;5064182;28;20524;-71
2022/09/01 00:59:43;;;;;;;1999.90;999.90;;;;;;;;;;5064920;28;20412;-71
2022/09/01 01:02:11;;;;;;;1999.90;999.90;;;;;;;;;;5066510;28;20399;-70
2022/09/01 01:04:42;;;;;;;1999.90;999.90;;;;;;;;;;5049660;28;21215;-71
2022/09/01 01:07:11;;;;;;;1999.90;999.90;;;;;;;;;;5065889;28;20419;-71
2022/09/01 01:09:42;;;;;;;1999.90;999.90;;;;;;;;;;5079878;27;21137;-71
2022/09/01 01:12:16;;;;;;;1999.90;999.90;;;;;;;;;;5068300;28;20413;-71
2022/09/01 01:14:44;;;;;;;1999.90;999.90;;;;;;;;;;5048488;28;20885;-70
2022/09/01 01:17:12;;;;;;;1999.90;999.90;;;;;;;;;;5066022;28;20430;-70
2022/09/01 01:25:22;;;;;;;1999.90;999.90;;;;;;;;;;5049808;28;21236;-71
2022/09/01 01:27:50;;;;;;;1999.90;999.90;;;;;;;;;;5087662;27;20410;-70
2022/09/01 01:30:20;;;;;;;1999.90;999.90;;;;;;;;;;5085731;27;20546;-73
2022/09/01 01:32:48;;;;;;;1999.90;999.90;;;;;;;;;;5072280;28;20390;-70
2022/09/01 01:35:17;;;;;;;1999.90;999.90;;;;;;;;;;5083193;27;20456;-70
2022/09/01 01:37:47;;;;;;;1999.90;999.90;;;;;;;;;;5070860;28;20417;-71
2022/09/01 01:40:19;;;;;;;1999.90;999.90;;;;;;;;;;5081235;28;20511;-71
2022/09/01 01:42:49;;;;;;;1999.90;999.90;;;;;;;;;;5070230;28;20959;-71
2022/09/01 01:45:19;;;;;;;1999.90;999.90;;;;;;;;;;5068247;28;20884;-70
2022/09/01 01:47:52;;;;;;;1999.90;999.90;;;;;;;;;;5064918;28;20497;-72
2022/09/01 01:50:24;;;;;;;1999.90;999.90;;;;;;;;;;5084745;27;20410;-71
2022/09/01 01:52:52;;;;;;;1999.90;999.90;;;;;;;;;;5067402;28;20426;-71
2022/09/01 01:55:27;;;;;;;1999.90;999.90;;;;;;;;;;5049951;28;20407;-71
2022/09/01 01:57:59;;;;;;;1999.90;999.90;;;;;;;;;;5064519;28;21622;-71
2022/09/01 02:00:29;;;;;;;1999.90;999.90;;;;;;;;;;5071067;28;20411;-71
2022/09/01 02:02:58;;;;;;;1999.90;999.90;;;;;;;;;;5076430;28;20481;-72
2022/09/01 02:05:41;;;;;;;1999.90;999.90;;;;;;;;;;5064532;28;20531;-71
2022/09/01 02:08:10;;;;;;;1999.90;999.90;;;;;;;;;;5079180;27;20397;-72
2022/09/01 02:10:40;;;;;;;1999.90;999.90;;;;;;;;;;5054235;28;20402;-72
2022/09/01 02:13:15;;;;;;;1999.90;999.90;;;;;;;;;;5052004;28;20489;-71
2022/09/01 02:15:44;;;;;;;1999.90;999.90;;;;;;;;;;5080319;27;20405;-71
2022/09/01 02:18:13;;;;;;;1999.90;999.90;;;;;;;;;;5064713;28;21047;-71
2022/09/01 02:20:41;;;;;;;1999.90;999.90;;;;;;;;;;5066458;28;20390;-71
2022/09/01 02:23:11;;;;;;;1999.90;999.90;;;;;;;;;;5061310;28;22045;-71
2022/09/01 02:25:43;;;;;;;1999.90;999.90;;;;;;;;;;5080570;27;20922;-72
2022/09/01 02:28:36;;;;;;;1999.90;999.90;;;;;;;;;;5064326;28;20571;-71
2022/09/01 02:31:04;;;;;;;1999.90;999.90;;;;;;;;;;5065360;28;20825;-71
2022/09/01 02:33:32;;;;;;;1999.90;999.90;;;;;;;;;;5075285;28;20397;-71
2022/09/01 02:36:02;;;;;;;1999.90;999.90;;;;;;;;;;5063315;28;20816;-71
2022/09/01 02:38:30;;;;;;;1999.90;999.90;;;;;;;;;;5066010;28;20419;-72
2022/09/01 02:40:58;;;;;;;1999.90;999.90;;;;;;;;;;5069368;28;20945;-72
2022/09/01 02:43:27;;;;;;;1999.90;999.90;;;;;;;;;;5048040;28;20417;-72
2022/09/01 02:45:58;;;;;;;1999.90;999.90;;;;;;;;;;5074011;28;20397;-72
2022/09/01 02:48:31;;;;;;;1999.90;999.90;;;;;;;;;;5083497;27;20465;-72
2022/09/01 02:51:00;;;;;;;1999.90;999.90;;;;;;;;;;5062789;28;20490;-71
2022/09/01 02:53:29;;;;;;;1999.90;999.90;;;;;;;;;;5081767;27;20395;-70
2022/09/01 02:55:58;;;;;;;1999.90;999.90;;;;;;;;;;5064445;28;20395;-71
2022/09/01 02:58:27;;;;;;;1999.90;999.90;;;;;;;;;;5082906;27;20417;-71
2022/09/01 03:00:56;;;;;;;1999.90;999.90;;;;;;;;;;5067883;28;20398;-72
2022/09/01 03:03:24;;;;;;;1999.90;999.90;;;;;;;;;;5084447;27;20395;-71
2022/09/01 03:05:54;;;;;;;1999.90;999.90;;;;;;;;;;5083581;27;20490;-71
2022/09/01 03:08:23;;;;;;;1999.90;999.90;;;;;;;;;;5066357;28;20410;-71
2022/09/01 03:10:52;;;;;;;1999.90;999.90;;;;;;;;;;5050498;28;20394;-71
2022/09/01 03:13:22;;;;;;;1999.90;999.90;;;;;;;;;;5048924;28;20865;-70
2022/09/01 03:15:50;;;;;;;1999.90;999.90;;;;;;;;;;5067778;28;20393;-71
2022/09/01 03:18:19;;;;;;;1999.90;999.90;;;;;;;;;;5079536;28;20473;-71
2022/09/01 03:20:49;;;;;;;1999.90;999.90;;;;;;;;;;5051416;28;20390;-71
2022/09/01 03:23:17;;;;;;;1999.90;999.90;;;;;;;;;;5079302;28;20415;-71
2022/09/01 03:25:48;;;;;;;1999.90;999.90;;;;;;;;;;5084355;27;20375;-71
2022/09/01 03:28:17;;;;;;;1999.90;999.90;;;;;;;;;;5072585;28;20413;-71
2022/09/01 03:30:47;;;;;;;1999.90;999.90;;;;;;;;;;5073282;28;20822;-71
2022/09/01 03:33:16;;;;;;;1999.90;999.90;;;;;;;;;;5072236;28;20369;-71
2022/09/01 03:35:47;;;;;;;1999.90;999.90;;;;;;;;;;5080850;28;20511;-71
2022/09/01 03:38:20;;;;;;;1999.90;999.90;;;;;;;;;;5067554;28;20510;-72
2022/09/01 03:40:51;;;;;;;1999.90;999.90;;;;;;;;;;5081402;28;20398;-71
2022/09/01 03:43:23;;;;;;;1999.90;999.90;;;;;;;;;;5075133;28;20406;-70
2022/09/01 03:45:53;;;;;;;1999.90;999.90;;;;;;;;;;5062637;28;20389;-70
2022/09/01 03:48:21;;;;;;;1999.90;999.90;;;;;;;;;;5049436;28;20496;-71
2022/09/01 03:50:51;;;;;;;1999.90;999.90;;;;;;;;;;5065581;28;20438;-71
2022/09/01 03:53:21;;;;;;;1999.90;999.90;;;;;;;;;;5054454;28;20468;-71
2022/09/01 03:55:51;;;;;;;1999.90;999.90;;;;;;;;;;5083358;28;20422;-72
2022/09/01 03:58:19;;;;;;;1999.90;999.90;;;;;;;;;;5053522;28;20784;-71
2022/09/01 04:00:48;;;;;;;1999.90;999.90;;;;;;;;;;5079747;28;20395;-71
2022/09/01 04:03:20;;;;;;;1999.90;999.90;;;;;;;;;;5063845;28;20443;-71
2022/09/01 04:06:01;;;;;;;1999.90;999.90;;;;;;;;;;5050220;28;20868;-72
2022/09/01 04:08:29;;;;;;;1999.90;999.90;;;;;;;;;;5068445;28;20404;-72
2022/09/01 04:11:02;;;;;;;1999.90;999.90;;;;;;;;;;5062898;28;20487;-72
2022/09/01 04:13:34;;;;;;;1999.90;999.90;;;;;;;;;;5049798;28;20458;-73
2022/09/01 04:16:09;;;;;;;1999.90;999.90;;;;;;;;;;5081109;27;20430;-72
2022/09/01 04:18:38;;;;;;;1999.90;999.90;;;;;;;;;;5066337;28;20472;-72
2022/09/01 04:21:09;;;;;;;1999.90;999.90;;;;;;;;;;5061436;28;20442;-72
2022/09/01 04:23:37;;;;;;;1999.90;999.90;;;;;;;;;;5075868;28;20408;-72
2022/09/01 04:26:08;;;;;;;1999.90;999.90;;;;;;;;;;5061127;28;20397;-70
2022/09/01 04:28:37;;;;;;;1999.90;999.90;;;;;;;;;;5053579;28;20501;-70
2022/09/01 04:31:07;;;;;;;1999.90;999.90;;;;;;;;;;5067664;28;20409;-71
2022/09/01 04:33:38;;;;;;;1999.90;999.90;;;;;;;;;;5076929;28;20992;-70
2022/09/01 04:36:18;;;;;;;1999.90;999.90;;;;;;;;;;5048078;28;20407;-73
2022/09/01 04:38:48;;;;;;;1999.90;999.90;;;;;;;;;;5067231;28;20402;-70
2022/09/01 04:41:16;;;;;;;1999.90;999.90;;;;;;;;;;5069855;28;20413;-70
2022/09/01 04:43:46;;;;;;;1999.90;999.90;;;;;;;;;;5065128;28;20452;-73
2022/09/01 04:46:14;;;;;;;1999.90;999.90;;;;;;;;;;5064494;28;20423;-70
2022/09/01 04:48:44;;;;;;;1999.90;999.90;;;;;;;;;;5056977;28;20404;-70
2022/09/01 04:51:16;;;;;;;1999.90;999.90;;;;;;;;;;5050689;28;20402;-71
2022/09/01 04:53:51;;;;;;;1999.90;999.90;;;;;;;;;;5060429;28;20397;-70
2022/09/01 04:56:21;;;;;;;1999.90;999.90;;;;;;;;;;5069604;28;20434;-71
2022/09/01 04:59:06;;;;;;;1999.90;999.90;;;;;;;;;;5055374;28;20552;-74
2022/09/01 05:01:42;;;;;;;1999.90;999.90;;;;;;;;;;5053850;28;20558;-71
2022/09/01 05:04:13;;;;;;;1999.90;999.90;;;;;;;;;;5079665;27;20416;-72
2022/09/01 05:06:43;;;;;;;1999.90;999.90;;;;;;;;;;5073141;28;20439;-73
2022/09/01 05:09:11;;;;;;;1999.90;999.90;;;;;;;;;;5056230;28;20440;-72
2022/09/01 05:11:56;;;;;;;1999.90;999.90;;;;;;;;;;5071501;28;20462;-74
2022/09/01 05:14:29;;;;;;;1999.90;999.90;;;;;;;;;;5078479;28;20395;-72
2022/09/01 05:16:58;;;;;;;1999.90;999.90;;;;;;;;;;5070046;28;20971;-74
2022/09/01 05:19:29;;;;;;;1999.90;999.90;;;;;;;;;;5081753;28;20405;-74
2022/09/01 05:22:01;;;;;;;1999.90;999.90;;;;;;;;;;5082221;28;20441;-73
2022/09/01 05:24:30;;;;;;;1999.90;999.90;;;;;;;;;;5049662;28;20440;-74
2022/09/01 05:27:01;;;;;;;1999.90;999.90;;;;;;;;;;5071035;28;20381;-73
2022/09/01 05:29:29;;;;;;;1999.90;999.90;;;;;;;;;;5090501;27;20410;-74
2022/09/01 05:31:58;;;;;;;1999.90;999.90;;;;;;;;;;5054303;28;21255;-74
2022/09/01 05:34:28;;;;;;;1999.90;999.90;;;;;;;;;;5065079;28;20397;-73
2022/09/01 05:36:58;;;;;;;1999.90;999.90;;;;;;;;;;5073333;28;20385;-73
2022/09/01 05:39:27;;;;;;;1999.90;999.90;;;;;;;;;;5087746;28;20415;-74
2022/09/01 05:41:56;;;;;;;1999.90;999.90;;;;;;;;;;5072093;28;20500;-73
2022/09/01 05:44:24;;;;;;;1999.90;999.90;;;;;;;;;;5086231;27;20406;-74
2022/09/01 05:46:55;;;;;;;1999.90;999.90;;;;;;;;;;5088845;27;20428;-72
2022/09/01 05:49:27;;;;;;;1999.90;999.90;;;;;;;;;;5072056;28;20413;-74
2022/09/01 05:51:57;;;;;;;1999.90;999.90;;;;;;;;;;5068655;28;20394;-74
2022/09/01 05:54:28;;;;;;;1999.90;999.90;;;;;;;;;;5079289;28;20424;-74
2022/09/01 05:56:57;;;;;;;1999.90;999.90;;;;;;;;;;5070301;28;20395;-74
2022/09/01 05:59:52;;;;;;;1999.90;999.90;;;;;;;;;;5056731;28;20462;-73
2022/09/01 06:02:25;;;;;;;1999.90;999.90;;;;;;;;;;5073463;28;20441;-74
2022/09/01 06:04:55;;;;;;;1999.90;999.90;;;;;;;;;;5077844;28;20439;-73
2022/09/01 06:07:29;;;;;;;1999.90;999.90;;;;;;;;;;5064723;28;20400;-74
2022/09/01 06:10:00;;;;;;;1999.90;999.90;;;;;;;;;;5049606;28;21578;-74
2022/09/01 06:12:28;;;;;;;1999.90;999.90;;;;;;;;;;5070636;28;20516;-74
2022/09/01 06:14:57;;;;;;;1999.90;999.90;;;;;;;;;;5081088;28;20390;-73
2022/09/01 06:17:26;;;;;;;1999.90;999.90;;;;;;;;;;5079290;28;20399;-73
2022/09/01 06:19:57;;;;;;;1999.90;999.90;;;;;;;;;;5072219;28;20461;-73
2022/09/01 06:22:27;;;;;;;1999.90;999.90;;;;;;;;;;5064368;28;21012;-74
2022/09/01 06:24:58;;;;;;;1999.90;999.90;;;;;;;;;;5064417;28;20419;-73
2022/09/01 06:27:37;;;;;;;1999.90;999.90;;;;;;;;;;5082445;28;20440;-74
2022/09/01 06:30:13;;;;;;;1999.90;999.90;;;;;;;;;;5054721;28;20958;-74
2022/09/01 06:32:48;;;;;;;1999.90;999.90;;;;;;;;;;5056082;28;20409;-74
2022/09/01 06:35:16;;;;;;;1999.90;999.90;;;;;;;;;;5089079;27;20416;-74
2022/09/01 06:37:45;;;;;;;1999.90;999.90;;;;;;;;;;5067956;28;20959;-74
2022/09/01 06:40:24;;;;;;;1999.90;999.90;;;;;;;;;;5081420;28;20489;-74
2022/09/01 06:42:54;;;;;;;1999.90;999.90;;;;;;;;;;5072464;28;20494;-73
2022/09/01 06:45:22;;;;;;;1999.90;999.90;;;;;;;;;;5073508;28;20420;-73
2022/09/01 06:47:51;;;;;;;1999.90;999.90;;;;;;;;;;5083865;28;20421;-74
2022/09/01 06:50:26;;;;;;;1999.90;999.90;;;;;;;;;;5083288;28;20417;-73
2022/09/01 06:53:17;;;;;;;1999.90;999.90;;;;;;;;;;5072102;28;20390;-74
2022/09/01 06:56:03;;;;;;;1999.90;999.90;;;;;;;;;;5063074;28;20414;-74
2022/09/01 06:58:33;;;;;;;1999.90;999.90;;;;;;;;;;5076843;28;20417;-74
2022/09/01 07:01:05;;;;;;;1999.90;999.90;;;;;;;;;;5085832;28;20414;-73
2022/09/01 07:03:33;;;;;;;1999.90;999.90;;;;;;;;;;5097219;27;20424;-73
2022/09/01 07:06:17;;;;;;;1999.90;999.90;;;;;;;;;;5085035;28;20394;-73
2022/09/01 07:09:17;;;;;;;1999.90;999.90;;;;;;;;;;5068897;28;20351;-73
2022/09/01 07:12:07;;;;;;;1999.90;999.90;;;;;;;;;;5057614;28;20411;-73
2022/09/01 07:14:59;;;;;;;1999.90;999.90;;;;;;;;;;5053428;28;20515;-73
2022/09/01 07:17:49;;;;;;;1999.90;999.90;;;;;;;;;;5065708;28;20778;-72
2022/09/01 07:20:21;;;;;;;1999.90;999.90;;;;;;;;;;5056270;28;20401;-73
2022/09/01 07:22:53;;;;;;;1999.90;999.90;;;;;;;;;;5068989;28;20823;-73
2022/09/01 07:25:40;;;;;;;1999.90;999.90;;;;;;;;;;5053368;28;20401;-73
2022/09/01 07:28:41;;;;;;;1999.90;999.90;;;;;;;;;;5069956;28;21127;-72
2022/09/01 07:31:20;;;;;;;1999.90;999.90;;;;;;;;;;5068781;28;20405;-73
2022/09/01 07:34:12;;;;;;;1999.90;999.90;;;;;;;;;;5065275;28;20403;-73
2022/09/01 07:37:02;;;;;;;1999.90;999.90;;;;;;;;;;5081389;28;20402;-72
2022/09/01 07:39:50;;;;;;;1999.90;999.90;;;;;;;;;;5092693;28;20406;-73
2022/09/01 07:42:38;;;;;;;1999.90;999.90;;;;;;;;;;5068981;28;20401;-72
2022/09/01 07:45:47;;;;;;;1999.90;999.90;;;;;;;;;;5067109;28;20932;-73
2022/09/01 07:48:28;;;;;;;1999.90;999.90;;;;;;;;;;5081878;28;20359;-73
2022/09/01 07:51:18;;;;;;;1999.90;999.90;;;;;;;;;;5071467;28;20414;-72
2022/09/01 07:54:04;;;;;;;1999.90;999.90;;;;;;;;;;5065598;28;20794;-73
2022/09/01 07:56:32;;;;;;;1999.90;999.90;;;;;;;;;;5080697;28;20446;-73
2022/09/01 07:59:08;;;;;;;1999.90;999.90;;;;;;;;;;5049827;28;20389;-72
2022/09/01 08:01:49;;;;;;;1999.90;999.90;;;;;;;;;;5073879;28;20819;-73
2022/09/01 08:04:21;;;;;;;1999.90;999.90;;;;;;;;;;5082885;28;20492;-72
2022/09/01 08:06:50;;;;;;;1999.90;999.90;;;;;;;;;;5067360;28;20516;-73
2022/09/01 08:09:18;;;;;;;1999.90;999.90;;;;;;;;;;5082422;28;20428;-73
2022/09/01 08:12:02;;;;;;;1999.90;999.90;;;;;;;;;;5072751;28;20834;-72
2022/09/01 08:14:33;;;;;;;1999.90;999.90;;;;;;;;;;5067439;28;20378;-73
2022/09/01 08:17:02;;;;;;;1999.90;999.90;;;;;;;;;;5092106;27;20397;-73
2022/09/01 08:19:52;;;;;;;1999.90;999.90;;;;;;;;;;5082842;28;20508;-73
2022/09/01 08:22:32;;;;;;;1999.90;999.90;;;;;;;;;;5064668;28;20406;-73
2022/09/01 08:25:11;;;;;;;1999.90;999.90;;;;;;;;;;5085140;27;20391;-72
2022/09/01 08:27:39;;;;;;;1999.90;999.90;;;;;;;;;;5067573;28;20406;-73
2022/09/01 08:30:08;;;;;;;1999.90;999.90;;;;;;;;;;5066077;28;20385;-73
2022/09/01 08:32:41;;;;;;;1999.90;999.90;;;;;;;;;;5050104;28;20788;-73
2022/09/01 08:35:11;;;;;;;1999.90;999.90;;;;;;;;;;5051846;28;20402;-73
2022/09/01 08:37:39;;;;;;;1999.90;999.90;;;;;;;;;;5083705;28;20450;-73
2022/09/01 08:40:08;;;;;;;1999.90;999.90;;;;;;;;;;5090916;27;20394;-73
2022/09/01 08:42:44;;;;;;;1999.90;999.90;;;;;;;;;;5053234;28;20401;-73
2022/09/01 08:45:15;;;;;;;1999.90;999.90;;;;;;;;;;5071591;28;21207;-73
2022/09/01 08:47:43;;;;;;;1999.90;999.90;;;;;;;;;;5070826;28;20414;-73
2022/09/01 08:50:32;;;;;;;1999.90;999.90;;;;;;;;;;5071792;28;20398;-73
2022/09/01 08:53:21;;;;;;;1999.90;999.90;;;;;;;;;;5073388;28;20403;-73
2022/09/01 08:55:51;;;;;;;1999.90;999.90;;;;;;;;;;5065036;28;20427;-72
2022/09/01 08:58:19;;;;;;;1999.90;999.90;;;;;;;;;;5065260;28;20419;-73
2022/09/01 09:01:09;;;;;;;1999.90;999.90;;;;;;;;;;5070449;28;20379;-73
2022/09/01 09:03:41;;;;;;;1999.90;999.90;;;;;;;;;;5072093;28;20409;-73
2022/09/01 09:06:13;;;;;;;1999.90;999.90;;;;;;;;;;5067620;28;20391;-73
2022/09/01 09:08:55;;;;;;;1999.90;999.90;;;;;;;;;;5069603;28;20408;-73
2022/09/01 09:11:31;;;;;;;1999.90;999.90;;;;;;;;;;5071560;28;20411;-72
2022/09/01 09:14:02;;;;;;;1999.90;999.90;;;;;;;;;;5066203;28;20394;-73
2022/09/01 09:16:31;;;;;;;1999.90;999.90;;;;;;;;;;5067084;28;21007;-73
2022/09/01 09:19:02;;;;;;;1999.90;999.90;;;;;;;;;;5067859;28;20398;-73
2022/09/01 09:21:35;;;;;;;1999.90;999.90;;;;;;;;;;5067054;28;21306;-72
2022/09/01 09:24:08;;;;;;;1999.90;999.90;;;;;;;;;;5081917;28;20406;-73
2022/09/01 09:26:36;;;;;;;1999.90;999.90;;;;;;;;;;5069163;28;20402;-73
2022/09/01 09:29:11;;;;;;;1999.90;999.90;;;;;;;;;;5074639;28;20438;-72
2022/09/01 09:31:42;;;;;;;1999.90;999.90;;;;;;;;;;5074075;28;20412;-73
2022/09/01 09:34:17;;;;;;;1999.90;999.90;;;;;;;;;;5067866;28;20401;-73
2022/09/01 09:36:48;;;;;;;1999.90;999.90;;;;;;;;;;5081437;28;20393;-73
2022/09/01 09:39:22;;;;;;;1999.90;999.90;;;;;;;;;;5079083;28;20409;-73
2022/09/01 09:42:02;;;;;;;1999.90;999.90;;;;;;;;;;5071553;28;20400;-73
2022/09/01 09:44:32;;;;;;;1999.90;999.90;;;;;;;;;;5076859;28;20385;-72
2022/09/01 09:47:00;;;;;;;1999.90;999.90;;;;;;;;;;5067379;28;20398;-73
2022/09/01 09:49:29;;;;;;;1999.90;999.90;;;;;;;;;;5069557;28;20406;-72
2022/09/01 09:52:17;;;;;;;1999.90;999.90;;;;;;;;;;5064086;28;20406;-73
2022/09/01 09:54:59;;;;;;;1999.90;999.90;;;;;;;;;;5071133;28;20399;-73
2022/09/01 09:57:27;;;;;;;1999.90;999.90;;;;;;;;;;5075949;28;20393;-73
2022/09/01 09:59:58;;;;;;;1999.90;999.90;;;;;;;;;;5072937;28;20417;-73
2022/09/01 10:02:30;;;;;;;1999.90;999.90;;;;;;;;;;5071399;28;20456;-73
2022/09/01 10:04:59;;;;;;;1999.90;999.90;;;;;;;;;;5086296;28;20515;-73
2022/09/01 10:07:30;;;;;;;1999.90;999.90;;;;;;;;;;5072949;28;20394;-72
2022/09/01 10:10:00;;;;;;;1999.90;999.90;;;;;;;;;;5074040;28;20406;-73
2022/09/01 10:12:28;;;;;;;1999.90;999.90;;;;;;;;;;5073268;28;20378;-73
2022/09/01 10:14:58;;;;;;;1999.90;999.90;;;;;;;;;;5071791;28;20418;-73
2022/09/01 10:17:33;;;;;;;1999.90;999.90;;;;;;;;;;5070255;28;20893;-73
2022/09/01 10:20:07;;;;;;;1999.90;999.90;;;;;;;;;;5069065;28;20410;-72
2022/09/01 10:22:40;;;;;;;1999.90;999.90;;;;;;;;;;5085367;28;20385;-73
2022/09/01 10:25:09;;;;;;;1999.90;999.90;;;;;;;;;;5082749;28;20450;-73
2022/09/01 10:27:40;;;;;;;1999.90;999.90;;;;;;;;;;5071998;28;20968;-73
2022/09/01 10:30:10;;;;;;;1999.90;999.90;;;;;;;;;;5067793;28;20503;-73
2022/09/01 10:32:42;;;;;;;1999.90;999.90;;;;;;;;;;5083105;28;21629;-73
2022/09/01 10:35:22;;;;;;;1999.90;999.90;;;;;;;;;;5075238;28;21352;-73
2022/09/01 10:37:52;;;;;;;1999.90;999.90;;;;;;;;;;5082503;28;20390;-73
2022/09/01 10:40:34;;;;;;;1999.90;999.90;;;;;;;;;;5075613;28;20403;-73
2022/09/01 10:43:24;;;;;;;1999.90;999.90;;;;;;;;;;5084387;28;20393;-73
2022/09/01 10:45:51;;;;;;;1999.90;999.90;;;;;;;;;;5055421;28;20410;-73
2022/09/01 10:48:34;;;;;;;1999.90;999.90;;;;;;;;;;5068537;28;20397;-73
2022/09/01 10:51:41;;;;;;;1999.90;999.90;;;;;;;;;;5070544;28;20417;-73
2022/09/01 10:54:45;;;;;;;1999.90;999.90;;;;;;;;;;5070543;28;20386;-73
2022/09/01 10:57:44;;;;;;;1999.90;999.90;;;;;;;;;;5039171;28;20531;-73
2022/09/01 11:00:30;;;;;;;1999.90;999.90;;;;;;;;;;5074089;28;20394;-73
2022/09/01 11:03:21;;;;;;;1999.90;999.90;;;;;;;;;;5069002;28;20909;-73
2022/09/01 11:05:59;;;;;;;1999.90;999.90;;;;;;;;;;5071170;28;20908;-72
2022/09/01 11:08:44;;;;;;;1999.90;999.90;;;;;;;;;;5074145;28;20487;-73
2022/09/01 11:11:25;;;;;;;1999.90;999.90;;;;;;;;;;5075118;28;20429;-73
2022/09/01 11:13:54;;;;;;;1999.90;999.90;;;;;;;;;;5076810;28;20784;-73
2022/09/01 11:16:27;;;;;;;1999.90;999.90;;;;;;;;;;5083145;28;20408;-73
2022/09/01 11:19:37;;;;;;;1999.90;999.90;;;;;;;;;;5075795;28;20389;-74
2022/09/01 11:22:20;;;;;;;1999.90;999.90;;;;;;;;;;5066142;28;20905;-73
2022/09/01 11:24:49;;;;;;;1999.90;999.90;;;;;;;;;;5053451;28;20406;-73
2022/09/01 11:27:45;;;;;;;1999.90;999.90;;;;;;;;;;5083667;28;20818;-73
2022/09/01 11:30:17;;;;;;;1999.90;999.90;;;;;;;;;;5071329;28;20402;-74
2022/09/01 11:32:46;;;;;;;1999.90;999.90;;;;;;;;;;5077595;28;20544;-73
2022/09/01 11:35:16;;;;;;;1999.90;999.90;;;;;;;;;;5076995;28;21754;-74
2022/09/01 11:37:47;;;;;;;1999.90;999.90;;;;;;;;;;5077706;28;20906;-74
2022/09/01 11:40:20;;;;;;;1999.90;999.90;;;;;;;;;;5072673;28;20416;-74
2022/09/01 11:42:50;;;;;;;1999.90;999.90;;;;;;;;;;5071995;28;20437;-74
2022/09/01 11:45:21;;;;;;;1999.90;999.90;;;;;;;;;;5083915;28;20889;-74
2022/09/01 11:47:50;;;;;;;1999.90;999.90;;;;;;;;;;5069697;28;20391;-73
2022/09/01 11:50:20;;;;;;;1999.90;999.90;;;;;;;;;;5084415;27;20421;-73
2022/09/01 11:52:52;;;;;;;1999.90;999.90;;;;;;;;;;5092693;27;20381;-73
2022/09/01 11:55:28;;;;;;;1999.90;999.90;;;;;;;;;;5070856;28;20411;-73
2022/09/01 11:57:56;;;;;;;1999.90;999.90;;;;;;;;;;5068964;28;21247;-74
2022/09/01 12:00:30;;;;;;;1999.90;999.90;;;;;;;;;;5068176;28;20445;-73
2022/09/01 12:02:58;;;;;;;1999.90;999.90;;;;;;;;;;5068901;28;20416;-73
2022/09/01 12:05:28;;;;;;;1999.90;999.90;;;;;;;;;;5066431;28;20411;-73
2022/09/01 12:07:56;;;;;;;1999.90;999.90;;;;;;;;;;5052358;28;20377;-74
2022/09/01 12:10:30;;;;;;;1999.90;999.90;;;;;;;;;;5068440;28;20470;-73
2022/09/01 12:13:05;;;;;;;1999.90;999.90;;;;;;;;;;5087740;28;20789;-73
2022/09/01 12:15:36;;;;;;;1999.90;999.90;;;;;;;;;;5068435;28;20396;-73
2022/09/01 12:18:17;;;;;;;1999.90;999.90;;;;;;;;;;5068963;28;20855;-73
2022/09/01 12:20:46;;;;;;;1999.90;999.90;;;;;;;;;;5077918;28;20398;-73
2022/09/01 12:23:22;;;;;;;1999.90;999.90;;;;;;;;;;5066463;28;20900;-73
2022/09/01 12:25:50;;;;;;;1999.90;999.90;;;;;;;;;;5069511;28;20424;-74
2022/09/01 12:28:18;;;;;;;1999.90;999.90;;;;;;;;;;5067504;28;20387;-74
2022/09/01 12:30:48;;;;;;;1999.90;999.90;;;;;;;;;;5071453;28;20391;-74
2022/09/01 12:33:17;;;;;;;1999.90;999.90;;;;;;;;;;5068405;28;20413;-73
2022/09/01 12:35:50;;;;;;;1999.90;999.90;;;;;;;;;;5071329;28;20453;-73
2022/09/01 12:38:28;;;;;;;1999.90;999.90;;;;;;;;;;5070847;28;20457;-74
2022/09/01 12:40:57;;;;;;;1999.90;999.90;;;;;;;;;;5051664;28;20928;-74
2022/09/01 12:43:35;;;;;;;1999.90;999.90;;;;;;;;;;5066150;28;20451;-74
2022/09/01 12:46:07;;;;;;;1999.90;999.90;;;;;;;;;;5069471;28;20402;-73
2022/09/01 12:48:38;;;;;;;1999.90;999.90;;;;;;;;;;5073501;28;20387;-74
2022/09/01 12:51:15;;;;;;;1999.90;999.90;;;;;;;;;;5071926;28;20441;-74
2022/09/01 12:53:50;;;;;;;1999.90;999.90;;;;;;;;;;5067088;28;20418;-74
2022/09/01 12:56:29;;;;;;;1999.90;999.90;;;;;;;;;;5071955;28;20406;-76
2022/09/01 12:59:05;;;;;;;1999.90;999.90;;;;;;;;;;5073556;28;20426;-75
2022/09/01 13:01:42;;;;;;;1999.90;999.90;;;;;;;;;;5064390;28;20963;-75
2022/09/01 13:04:15;;;;;;;1999.90;999.90;;;;;;;;;;5064645;28;20438;-75
2022/09/01 13:06:42;;;;;;;1999.90;999.90;;;;;;;;;;5066683;28;20774;-75
2022/09/01 13:09:10;;;;;;;1999.90;999.90;;;;;;;;;;5068030;28;21342;-75
2022/09/01 13:11:38;;;;;;;1999.90;999.90;;;;;;;;;;5069833;28;20619;-74
2022/09/01 13:14:27;;;;;;;1999.90;999.90;;;;;;;;;;5064457;28;20385;-75
2022/09/01 13:16:56;;;;;;;1999.90;999.90;;;;;;;;;;5076775;28;20463;-74
2022/09/01 13:19:25;;;;;;;1999.90;999.90;;;;;;;;;;5076164;28;20737;-75
2022/09/01 13:21:56;;;;;;;1999.90;999.90;;;;;;;;;;5076266;28;20955;-75
2022/09/01 13:24:24;;;;;;;1999.90;999.90;;;;;;;;;;5081751;28;20413;-75
2022/09/01 13:26:58;;;;;;;1999.90;999.90;;;;;;;;;;5072820;28;20861;-75
2022/09/01 13:29:46;;;;;;;1999.90;999.90;;;;;;;;;;5071219;28;20402;-75
2022/09/01 13:32:15;;;;;;;1999.90;999.90;;;;;;;;;;5081874;28;20395;-75
2022/09/01 13:34:47;;;;;;;1999.90;999.90;;;;;;;;;;5073996;28;20434;-75
2022/09/01 13:37:17;;;;;;;1999.90;999.90;;;;;;;;;;5070909;28;20946;-75
2022/09/01 13:39:45;;;;;;;1999.90;999.90;;;;;;;;;;5072480;28;20386;-74
2022/09/01 13:42:13;;;;;;;1999.90;999.90;;;;;;;;;;5082274;28;20414;-75
2022/09/01 13:44:42;;;;;;;1999.90;999.90;;;;;;;;;;5082967;28;20404;-75
2022/09/01 13:47:11;;;;;;;1999.90;999.90;;;;;;;;;;5069214;28;20400;-75
2022/09/01 13:50:00;;;;;;;1999.90;999.90;;;;;;;;;;5080436;28;20529;-75
2022/09/01 13:52:39;;;;;;;1999.90;999.90;;;;;;;;;;5063834;28;20984;-75
2022/09/01 13:55:07;;;;;;;1999.90;999.90;;;;;;;;;;5073382;28;20395;-75
2022/09/01 13:57:35;;;;;;;1999.90;999.90;;;;;;;;;;5072261;28;20493;-75
2022/09/01 14:00:06;;;;;;;1999.90;999.90;;;;;;;;;;5068422;28;20383;-75
2022/09/01 14:02:36;;;;;;;1999.90;999.90;;;;;;;;;;5073364;28;20431;-75
2022/09/01 14:05:06;;;;;;;1999.90;999.90;;;;;;;;;;5068344;28;20391;-75
2022/09/01 14:07:34;;;;;;;1999.90;999.90;;;;;;;;;;5072194;28;20790;-76
2022/09/01 14:10:02;;;;;;;1999.90;999.90;;;;;;;;;;5070392;28;20411;-75
2022/09/01 14:12:31;;;;;;;1999.90;999.90;;;;;;;;;;5068892;28;20422;-76
2022/09/01 14:14:59;;;;;;;1999.90;999.90;;;;;;;;;;5081083;28;20420;-75
2022/09/01 14:17:46;;;;;;;1999.90;999.90;;;;;;;;;;5055349;28;20402;-75
2022/09/01 14:20:17;;;;;;;1999.90;999.90;;;;;;;;;;5071575;28;21095;-76